Time;durP1;ratioP1;P1;durP2;ratioP2;P2;SDS_P1;SDS_P2;PMS_P1;PMS_P2;Temp;Humidity;BMP_temperature;BMP_pressure;BME280_temperature;BME280_humidity;BME280_pressure;Samples;Min_cycle;Max_cycle;Signal;HPM_P1;HPM_P2
2021/05/22 00:02:25;;;;;;;2.03;1.40;;;;;;;11.43;100.00;99847.53;5045517;28;20454;-64
2021/05/22 00:04:51;;;;;;;1.30;1.20;;;;;;;11.37;100.00;99853.09;5055068;28;20457;-64
2021/05/22 00:07:18;;;;;;;1.97;0.93;;;;;;;11.33;100.00;99852.19;5045832;28;20921;-65
2021/05/22 00:09:45;;;;;;;1.83;1.07;;;;;;;11.23;100.00;99843.59;5034988;28;20439;-65
2021/05/22 00:12:12;;;;;;;1.37;1.00;;;;;;;11.16;100.00;99841.41;5050132;28;20446;-64
2021/05/22 00:14:38;;;;;;;1.03;0.93;;;;;;;11.07;99.58;99824.34;5055005;28;20474;-64
2021/05/22 00:17:04;;;;;;;2.37;1.03;;;;;;;11.03;99.28;99815.28;5040780;28;20450;-66
2021/05/22 00:19:30;;;;;;;1.20;1.03;;;;;;;10.96;99.57;99823.88;5034994;28;20870;-64
2021/05/22 00:21:56;;;;;;;1.50;1.00;;;;;;;10.98;100.00;99818.13;5047600;28;20488;-65
2021/05/22 00:24:23;;;;;;;2.90;1.30;;;;;;;10.85;100.00;99815.31;5054710;28;20466;-65
2021/05/22 00:26:49;;;;;;;0.93;0.93;;;;;;;10.73;100.00;99811.66;5041974;28;20571;-63
2021/05/22 00:29:16;;;;;;;1.77;1.37;;;;;;;10.71;100.00;99803.84;5034664;28;20577;-65
2021/05/22 00:31:42;;;;;;;1.43;1.03;;;;;;;10.77;100.00;99794.44;5043565;28;20453;-64
2021/05/22 00:34:08;;;;;;;3.80;1.20;;;;;;;10.70;100.00;99783.31;5053807;28;21000;-64
2021/05/22 00:36:34;;;;;;;1.40;0.80;;;;;;;10.71;100.00;99784.88;5044803;28;20950;-63
2021/05/22 00:39:00;;;;;;;2.70;1.83;;;;;;;10.68;100.00;99790.97;5034651;28;20479;-65
2021/05/22 00:41:27;;;;;;;2.30;1.43;;;;;;;10.57;100.00;99784.28;5035181;28;20535;-65
2021/05/22 00:43:53;;;;;;;5.17;1.37;;;;;;;10.49;100.00;99783.19;5033367;28;20525;-64
2021/05/22 00:46:19;;;;;;;0.90;0.87;;;;;;;10.41;99.59;99775.06;5041197;28;20926;-65
2021/05/22 00:48:45;;;;;;;1.53;1.13;;;;;;;10.35;99.89;99777.91;5043029;28;20443;-64
2021/05/22 00:51:11;;;;;;;1.40;0.67;;;;;;;10.16;98.86;99773.91;5039375;28;20511;-64
2021/05/22 00:53:37;;;;;;;1.03;0.93;;;;;;;10.08;99.47;99767.38;5053788;28;20466;-64
2021/05/22 00:56:04;;;;;;;1.80;1.00;;;;;;;10.10;97.95;99760.56;5050452;28;20447;-66
2021/05/22 00:58:33;;;;;;;1.70;1.40;;;;;;;10.00;98.89;99766.25;5034137;28;20451;-64
2021/05/22 01:01:00;;;;;;;0.97;0.87;;;;;;;9.91;100.00;99764.66;5036526;28;20428;-65
2021/05/22 01:03:28;;;;;;;1.30;0.70;;;;;;;10.01;99.72;99767.88;5053910;28;20462;-65
2021/05/22 01:06:07;;;;;;;2.40;2.20;;;;;;;9.96;100.00;99769.91;5048789;28;20455;-65
2021/05/22 01:08:34;;;;;;;0.90;0.87;;;;;;;9.97;100.00;99776.94;5054036;28;20948;-65
2021/05/22 01:11:04;;;;;;;1.70;0.87;;;;;;;9.95;100.00;99765.63;5052269;28;20452;-65
2021/05/22 01:13:35;;;;;;;1.23;1.03;;;;;;;9.86;100.00;99766.41;5034328;28;20459;-64
2021/05/22 01:16:02;;;;;;;2.10;1.10;;;;;;;9.75;100.00;99772.44;5036037;28;22135;-65
2021/05/22 01:18:29;;;;;;;1.00;0.90;;;;;;;9.85;100.00;99770.22;5053777;28;20447;-64
2021/05/22 01:20:57;;;;;;;1.50;1.40;;;;;;;9.79;100.00;99768.78;5052052;28;20446;-65
2021/05/22 01:23:31;;;;;;;0.80;0.60;;;;;;;9.77;100.00;99757.47;5033245;28;20463;-64
2021/05/22 01:25:59;;;;;;;1.33;0.90;;;;;;;9.80;100.00;99746.03;5041299;28;20458;-65
2021/05/22 01:28:25;;;;;;;0.73;0.73;;;;;;;9.79;100.00;99744.47;5033646;28;20447;-64
2021/05/22 01:30:52;;;;;;;0.70;0.60;;;;;;;9.80;100.00;99747.94;5034083;28;20466;-65
2021/05/22 01:33:20;;;;;;;1.17;1.07;;;;;;;9.76;100.00;99750.50;5053512;28;20880;-64
2021/05/22 01:35:47;;;;;;;0.80;0.80;;;;;;;9.79;100.00;99752.56;5051630;28;20434;-64
2021/05/22 01:38:13;;;;;;;1.17;1.07;;;;;;;9.83;100.00;99750.81;5053435;28;20450;-65
2021/05/22 01:40:39;;;;;;;1.10;0.80;;;;;;;9.78;99.93;99752.88;5044819;28;20451;-64
2021/05/22 01:43:07;;;;;;;2.33;1.10;;;;;;;9.72;98.87;99749.53;5036920;28;20454;-64
2021/05/22 01:45:35;;;;;;;0.80;0.67;;;;;;;9.65;98.18;99754.63;5053299;28;20434;-64
2021/05/22 01:48:04;;;;;;;1.60;1.13;;;;;;;9.59;98.07;99762.06;5036579;28;20490;-64
2021/05/22 01:50:32;;;;;;;1.20;1.10;;;;;;;9.58;97.85;99754.28;5034995;28;20451;-64
2021/05/22 01:53:00;;;;;;;1.97;1.40;;;;;;;9.53;99.28;99755.22;5052935;28;20534;-64
2021/05/22 01:55:28;;;;;;;1.63;1.00;;;;;;;9.59;99.33;99756.66;5052033;28;20442;-64
2021/05/22 01:57:54;;;;;;;1.17;1.07;;;;;;;9.61;99.64;99756.34;5033215;28;20435;-63
2021/05/22 02:00:21;;;;;;;1.90;1.70;;;;;;;9.59;100.00;99755.84;5033207;28;20448;-65
2021/05/22 02:02:54;;;;;;;1.47;0.80;;;;;;;9.62;100.00;99755.25;5053069;28;20458;-64
2021/05/22 02:05:20;;;;;;;1.03;0.97;;;;;;;9.69;100.00;99750.16;5052789;28;20473;-65
2021/05/22 02:07:48;;;;;;;1.37;0.80;;;;;;;9.74;100.00;99746.50;5033058;28;20869;-64
2021/05/22 02:10:15;;;;;;;1.03;0.60;;;;;;;9.73;100.00;99753.03;5033008;28;20465;-65
2021/05/22 02:12:43;;;;;;;1.07;0.80;;;;;;;9.80;100.00;99753.34;5051486;28;20821;-64
2021/05/22 02:15:11;;;;;;;0.73;0.70;;;;;;;9.80;100.00;99754.16;5052908;28;20464;-64
2021/05/22 02:17:40;;;;;;;1.23;1.13;;;;;;;9.79;99.92;99747.16;5035188;28;20489;-64
2021/05/22 02:20:09;;;;;;;1.13;1.03;;;;;;;9.70;98.46;99746.34;5047759;28;20886;-64
2021/05/22 02:22:38;;;;;;;1.13;0.70;;;;;;;9.68;98.68;99737.75;5052887;28;20438;-64
2021/05/22 02:25:05;;;;;;;1.10;0.83;;;;;;;9.66;97.76;99745.38;5037816;28;20842;-64
2021/05/22 02:27:32;;;;;;;0.80;0.70;;;;;;;9.67;96.39;99740.78;5032892;28;20487;-65
2021/05/22 02:29:58;;;;;;;1.00;0.60;;;;;;;9.67;96.43;99752.38;5033959;28;20450;-65
2021/05/22 02:32:27;;;;;;;1.80;0.97;;;;;;;9.64;96.50;99753.00;5033946;28;20443;-65
2021/05/22 02:34:56;;;;;;;0.93;0.80;;;;;;;9.64;96.57;99753.00;5034667;28;20439;-64
2021/05/22 02:37:27;;;;;;;1.13;0.90;;;;;;;9.67;97.04;99760.50;5048366;28;20442;-64
2021/05/22 02:39:56;;;;;;;6.73;1.57;;;;;;;9.66;97.61;99767.03;5056834;28;20457;-64
2021/05/22 02:42:23;;;;;;;1.43;0.90;;;;;;;9.69;98.27;99768.28;5044651;28;20980;-64
2021/05/22 02:44:52;;;;;;;1.73;1.07;;;;;;;9.71;97.89;99768.78;5036669;28;20887;-65
2021/05/22 02:47:20;;;;;;;0.97;0.97;;;;;;;9.70;97.86;99778.00;5047543;28;20478;-66
2021/05/22 02:49:48;;;;;;;0.77;0.77;;;;;;;9.68;98.40;99764.78;5056522;28;20488;-65
2021/05/22 02:52:18;;;;;;;1.30;1.20;;;;;;;9.66;97.98;99772.44;5045946;28;20465;-66
2021/05/22 02:54:47;;;;;;;1.00;0.70;;;;;;;9.73;97.98;99770.03;5036484;28;21031;-64
2021/05/22 02:57:13;;;;;;;0.90;0.60;;;;;;;9.80;97.96;99770.38;5042621;28;20520;-65
2021/05/22 02:59:40;;;;;;;11.77;0.90;;;;;;;9.81;98.23;99771.97;5056396;28;20438;-65
2021/05/22 03:02:09;;;;;;;0.80;0.60;;;;;;;9.83;97.62;99761.66;5050996;28;20451;-64
2021/05/22 03:04:35;;;;;;;1.00;0.90;;;;;;;9.84;97.84;99762.44;5035936;28;20458;-64
2021/05/22 03:07:02;;;;;;;1.23;1.00;;;;;;;9.92;97.89;99769.78;5040517;28;20474;-65
2021/05/22 03:09:29;;;;;;;3.57;0.80;;;;;;;9.98;97.77;99762.28;5055587;28;20454;-63
2021/05/22 03:11:55;;;;;;;0.50;0.50;;;;;;;10.00;96.93;99765.47;5052372;28;20441;-64
2021/05/22 03:14:22;;;;;;;1.60;1.03;;;;;;;10.04;95.26;99755.59;5036104;28;20467;-66
2021/05/22 03:16:49;;;;;;;1.23;1.13;;;;;;;10.03;94.43;99762.13;5041811;28;20480;-67
2021/05/22 03:19:14;;;;;;;1.50;0.70;;;;;;;10.06;93.59;99758.81;5055961;28;20443;-67
2021/05/22 03:21:40;;;;;;;1.43;0.73;;;;;;;10.06;93.53;99759.59;5054410;28;20453;-67
2021/05/22 03:24:08;;;;;;;0.90;0.80;;;;;;;10.08;94.18;99751.94;5054269;28;20470;-66
2021/05/22 03:26:34;;;;;;;0.73;0.70;;;;;;;10.08;93.72;99746.53;5052439;28;20548;-66
2021/05/22 03:29:00;;;;;;;0.80;0.63;;;;;;;10.08;93.61;99754.66;5035752;28;20450;-66
2021/05/22 03:31:26;;;;;;;0.77;0.70;;;;;;;10.16;95.08;99753.06;5036873;28;20447;-67
2021/05/22 03:33:52;;;;;;;0.70;0.60;;;;;;;10.21;95.99;99755.59;5052577;28;20466;-66
2021/05/22 03:36:18;;;;;;;2.70;0.80;;;;;;;10.27;96.38;99767.09;5055330;28;20435;-67
2021/05/22 03:38:44;;;;;;;0.77;0.57;;;;;;;10.37;96.47;99766.00;5035549;28;20451;-66
2021/05/22 03:41:10;;;;;;;1.30;0.90;;;;;;;10.46;96.53;99764.06;5035742;28;20458;-66
2021/05/22 03:43:37;;;;;;;1.27;0.83;;;;;;;10.54;96.66;99774.09;5054444;28;20536;-65
2021/05/22 03:46:03;;;;;;;0.90;0.60;;;;;;;10.63;95.45;99772.19;5055099;28;20445;-66
2021/05/22 03:48:29;;;;;;;0.50;0.50;;;;;;;10.72;95.72;99777.59;5041016;28;21066;-66
2021/05/22 03:50:55;;;;;;;0.90;0.70;;;;;;;10.88;96.23;99772.44;5035488;28;20443;-66
2021/05/22 03:53:22;;;;;;;1.10;0.73;;;;;;;11.00;96.04;99777.97;5051805;28;20486;-66
2021/05/22 03:55:48;;;;;;;0.80;0.67;;;;;;;11.10;96.07;99780.34;5055444;28;20469;-67
2021/05/22 03:58:14;;;;;;;0.57;0.57;;;;;;;11.15;96.21;99779.34;5039472;28;20954;-67
2021/05/22 04:00:40;;;;;;;0.83;0.60;;;;;;;11.25;95.79;99779.03;5035027;28;20439;-66
2021/05/22 04:03:06;;;;;;;0.60;0.47;;;;;;;11.32;94.83;99782.00;5049417;28;20520;-65
2021/05/22 04:05:33;;;;;;;1.07;0.60;;;;;;;11.36;94.43;99789.16;5055161;28;20469;-65
2021/05/22 04:07:59;;;;;;;1.50;0.77;;;;;;;11.41;93.35;99792.81;5045669;28;20474;-65
2021/05/22 04:10:25;;;;;;;2.57;0.90;;;;;;;11.41;91.64;99787.38;5035429;28;20949;-66
2021/05/22 04:12:51;;;;;;;1.43;0.40;;;;;;;11.35;91.23;99800.34;5046752;28;20473;-66
2021/05/22 04:15:17;;;;;;;1.37;0.60;;;;;;;11.42;90.57;99792.50;5055033;28;20453;-66
2021/05/22 04:17:44;;;;;;;1.17;0.60;;;;;;;11.50;89.76;99790.84;5044155;28;20444;-65
2021/05/22 04:20:11;;;;;;;1.00;0.90;;;;;;;11.55;89.35;99796.09;5034697;28;21016;-65
2021/05/22 04:22:37;;;;;;;0.50;0.47;;;;;;;11.56;89.44;99792.28;5040883;28;20966;-65
2021/05/22 04:25:03;;;;;;;1.30;0.87;;;;;;;11.63;89.98;99801.47;5034636;28;20505;-66
2021/05/22 04:27:30;;;;;;;0.80;0.60;;;;;;;11.71;90.18;99791.72;5039662;28;20482;-65
2021/05/22 04:29:55;;;;;;;1.93;0.90;;;;;;;11.78;88.72;99797.41;5048012;28;20447;-66
2021/05/22 04:32:21;;;;;;;1.10;0.70;;;;;;;11.88;89.47;99798.97;5035054;28;20450;-65
2021/05/22 04:34:48;;;;;;;1.53;0.73;;;;;;;11.98;88.73;99797.78;5035224;28;20463;-66
2021/05/22 04:37:14;;;;;;;0.50;0.47;;;;;;;12.05;89.38;99801.59;5048601;28;20442;-65
2021/05/22 04:39:40;;;;;;;0.77;0.60;;;;;;;12.12;87.69;99798.31;5054989;28;20477;-66
2021/05/22 04:42:06;;;;;;;1.00;0.70;;;;;;;12.16;88.80;99784.91;5042030;28;20962;-62
2021/05/22 04:44:32;;;;;;;0.60;0.43;;;;;;;12.23;87.91;99790.59;5052778;23;20523;-63
2021/05/22 04:46:58;;;;;;;0.67;0.50;;;;;;;12.29;88.47;99789.25;5074110;28;20469;-63
2021/05/22 04:49:27;;;;;;;1.67;0.60;;;;;;;12.41;89.01;99794.75;5074200;28;20449;-65
2021/05/22 04:51:55;;;;;;;5.13;0.97;;;;;;;12.52;89.07;99795.13;5073954;28;20607;-65
2021/05/22 04:54:21;;;;;;;0.80;0.73;;;;;;;12.58;87.65;99794.63;5074008;28;20476;-63
2021/05/22 04:56:46;;;;;;;0.80;0.40;;;;;;;12.66;86.44;99786.69;5064849;28;20533;-63
2021/05/22 04:59:12;;;;;;;0.90;0.70;;;;;;;12.77;86.36;99791.38;5054181;28;20445;-63
2021/05/22 05:01:40;;;;;;;1.47;1.37;;;;;;;12.88;87.80;99798.00;5055216;28;20537;-63
2021/05/22 05:04:06;;;;;;;0.70;0.53;;;;;;;12.99;85.68;99792.13;5054265;28;20448;-63
2021/05/22 05:06:32;;;;;;;0.90;0.63;;;;;;;13.05;85.49;99801.66;5063252;28;20484;-63
2021/05/22 05:08:59;;;;;;;0.87;0.77;;;;;;;13.11;84.71;99794.88;5073951;28;20437;-63
2021/05/22 05:11:25;;;;;;;6.00;1.27;;;;;;;13.14;84.24;99796.91;5061603;28;20446;-62
2021/05/22 05:13:51;;;;;;;1.23;0.53;;;;;;;13.24;83.41;99793.78;5053792;28;20475;-64
2021/05/22 05:16:17;;;;;;;1.37;0.80;;;;;;;13.30;83.63;99797.88;5066141;28;20453;-65
2021/05/22 05:18:43;;;;;;;0.60;0.47;;;;;;;13.34;83.38;99798.78;5073611;28;20940;-64
2021/05/22 05:21:10;;;;;;;1.77;0.77;;;;;;;13.41;83.48;99809.09;5064030;28;20848;-64
2021/05/22 05:23:36;;;;;;;0.50;0.47;;;;;;;13.45;83.62;99820.88;5053814;28;20453;-64
2021/05/22 05:26:04;;;;;;;0.77;0.50;;;;;;;13.43;83.69;99817.72;5062291;28;20461;-63
2021/05/22 05:28:30;;;;;;;0.90;0.60;;;;;;;13.48;84.36;99816.69;5073792;28;20534;-64
2021/05/22 05:30:56;;;;;;;0.70;0.60;;;;;;;13.52;84.77;99820.34;5069818;28;20446;-64
2021/05/22 05:33:22;;;;;;;0.60;0.50;;;;;;;13.54;85.13;99828.94;5053550;28;20532;-65
2021/05/22 05:35:49;;;;;;;0.80;0.50;;;;;;;13.50;84.98;99817.16;5060080;28;20469;-63
2021/05/22 05:38:15;;;;;;;1.30;1.07;;;;;;;13.50;84.63;99822.59;5073364;28;20967;-63
2021/05/22 05:40:41;;;;;;;0.60;0.50;;;;;;;13.44;82.33;99813.06;5068207;28;20442;-64
2021/05/22 05:43:10;;;;;;;0.70;0.50;;;;;;;13.41;81.44;99830.06;5060958;28;20442;-65
2021/05/22 05:45:36;;;;;;;0.50;0.43;;;;;;;13.30;82.88;99838.66;5071399;28;20509;-64
2021/05/22 05:48:02;;;;;;;0.67;0.67;;;;;;;13.10;84.95;99831.34;5073338;28;20522;-65
2021/05/22 05:50:28;;;;;;;1.23;0.83;;;;;;;12.85;87.67;99828.56;5071637;28;20452;-64
2021/05/22 05:52:54;;;;;;;1.33;0.50;;;;;;;12.68;91.20;99830.66;5056021;28;20846;-66
2021/05/22 05:55:20;;;;;;;1.00;0.70;;;;;;;12.58;92.40;99831.84;5053544;28;20821;-64
2021/05/22 05:57:46;;;;;;;1.57;0.70;;;;;;;12.48;94.38;99834.97;5073171;28;20429;-64
2021/05/22 06:00:14;;;;;;;0.73;0.43;;;;;;;12.44;96.42;99828.59;5071887;28;20471;-63
2021/05/22 06:02:40;;;;;;;1.37;0.60;;;;;;;12.44;96.92;99826.69;5053087;28;20499;-64
2021/05/22 06:05:08;;;;;;;0.50;0.40;;;;;;;12.46;96.98;99820.94;5052896;28;20465;-65
2021/05/22 06:07:34;;;;;;;1.50;0.97;;;;;;;12.56;97.15;99812.38;5052404;28;20481;-64
2021/05/22 06:10:00;;;;;;;0.80;0.60;;;;;;;12.62;97.01;99809.13;5053004;28;20460;-64
2021/05/22 06:12:26;;;;;;;0.87;0.60;;;;;;;12.68;97.19;99812.41;5052924;28;20507;-64
2021/05/22 06:14:55;;;;;;;1.13;0.80;;;;;;;12.70;97.04;99820.22;5061795;28;20560;-64
2021/05/22 06:17:22;;;;;;;1.43;0.70;;;;;;;12.78;96.73;99825.59;5072945;28;20480;-64
2021/05/22 06:19:48;;;;;;;0.77;0.40;;;;;;;12.86;95.97;99822.00;5059798;28;20445;-64
2021/05/22 06:22:14;;;;;;;1.10;0.80;;;;;;;12.95;95.49;99824.63;5052870;28;20446;-64
2021/05/22 06:24:40;;;;;;;1.87;1.00;;;;;;;13.03;94.21;99825.66;5063434;28;20475;-63
2021/05/22 06:27:06;;;;;;;1.10;0.70;;;;;;;13.06;94.16;99830.44;5072474;28;20485;-64
2021/05/22 06:29:32;;;;;;;2.40;1.30;;;;;;;13.06;93.09;99830.44;5071095;28;20459;-63
2021/05/22 06:31:58;;;;;;;2.07;0.60;;;;;;;13.04;91.72;99835.41;5072838;28;20430;-63
2021/05/22 06:34:25;;;;;;;1.87;0.70;;;;;;;13.04;91.08;99843.56;5065666;28;20957;-64
2021/05/22 06:36:53;;;;;;;2.00;1.17;;;;;;;13.08;91.73;99833.59;5056136;28;20444;-64
2021/05/22 06:39:19;;;;;;;0.97;0.83;;;;;;;13.13;91.54;99833.38;5054832;28;20476;-64
2021/05/22 06:41:45;;;;;;;0.70;0.70;;;;;;;13.18;90.74;99837.81;5069224;28;20449;-63
2021/05/22 06:44:17;;;;;;;0.60;0.50;;;;;;;13.24;91.32;99831.09;5065611;28;20477;-64
2021/05/22 06:46:49;;;;;;;1.13;0.70;;;;;;;13.36;91.02;99840.03;5052562;28;20426;-64
2021/05/22 06:49:16;;;;;;;0.83;0.67;;;;;;;13.51;90.78;99829.63;5052625;28;20441;-65
2021/05/22 06:51:43;;;;;;;0.57;0.50;;;;;;;13.66;89.71;99839.03;5052569;28;20499;-64
2021/05/22 06:54:09;;;;;;;1.00;0.50;;;;;;;13.72;90.97;99835.75;5052527;28;20446;-65
2021/05/22 06:56:35;;;;;;;0.80;0.80;;;;;;;13.78;88.77;99839.84;5052606;28;20445;-65
2021/05/22 06:59:01;;;;;;;3.60;0.67;;;;;;;13.87;90.04;99850.63;5053231;28;20979;-66
2021/05/22 07:01:27;;;;;;;1.60;1.07;;;;;;;13.94;87.52;99844.59;5072541;28;20441;-65
2021/05/22 07:03:54;;;;;;;1.07;0.90;;;;;;;13.93;86.42;99845.72;5068230;28;20436;-66
2021/05/22 07:06:22;;;;;;;2.57;0.70;;;;;;;13.98;86.88;99849.00;5070860;28;20584;-65
2021/05/22 07:08:49;;;;;;;1.27;0.70;;;;;;;13.99;88.75;99845.19;5072231;28;20991;-65
2021/05/22 07:11:18;;;;;;;0.90;0.57;;;;;;;14.02;86.86;99852.63;5056861;28;20455;-66
2021/05/22 07:13:45;;;;;;;0.90;0.70;;;;;;;14.04;87.19;99857.75;5053258;28;20533;-65
2021/05/22 07:16:11;;;;;;;0.60;0.40;;;;;;;14.12;86.21;99859.53;5052012;28;20997;-65
2021/05/22 07:18:36;;;;;;;4.00;0.90;;;;;;;14.15;84.01;99853.41;5068995;28;20520;-65
2021/05/22 07:21:02;;;;;;;0.60;0.50;;;;;;;14.16;83.90;99849.56;5073267;28;20437;-65
2021/05/22 07:23:28;;;;;;;0.70;0.70;;;;;;;14.25;84.91;99861.13;5059944;28;20810;-65
2021/05/22 07:25:55;;;;;;;1.77;0.50;;;;;;;14.36;84.49;99848.63;5064710;28;20461;-65
2021/05/22 07:28:21;;;;;;;0.80;0.70;;;;;;;14.55;84.51;99847.22;5065423;28;20533;-67
2021/05/22 07:30:47;;;;;;;0.50;0.50;;;;;;;14.69;81.45;99861.25;5064342;28;20443;-64
2021/05/22 07:33:14;;;;;;;0.50;0.30;;;;;;;14.82;79.24;99864.72;5063438;28;20799;-63
2021/05/22 07:35:40;;;;;;;0.80;0.63;;;;;;;14.80;75.70;99870.53;5065764;28;20462;-63
2021/05/22 07:38:06;;;;;;;0.80;0.40;;;;;;;14.80;74.53;99850.66;5055474;28;20811;-66
2021/05/22 07:40:32;;;;;;;1.60;0.80;;;;;;;14.82;73.96;99868.25;5056489;28;20448;-64
2021/05/22 07:42:59;;;;;;;0.70;0.50;;;;;;;14.82;73.03;99865.53;5055579;28;20439;-63
2021/05/22 07:45:25;;;;;;;0.80;0.70;;;;;;;15.00;73.09;99866.00;5056270;28;20478;-64
2021/05/22 07:47:51;;;;;;;0.60;0.40;;;;;;;15.06;72.78;99856.47;5072995;28;20481;-63
2021/05/22 07:50:17;;;;;;;4.73;0.60;;;;;;;15.09;71.42;99863.13;5072319;28;20540;-64
2021/05/22 07:52:43;;;;;;;0.60;0.40;;;;;;;15.12;70.54;99870.63;5055527;28;20442;-63
2021/05/22 07:55:11;;;;;;;0.50;0.40;;;;;;;15.09;69.45;99869.38;5061573;28;20468;-62
2021/05/22 07:57:37;;;;;;;1.23;0.70;;;;;;;15.01;68.18;99864.91;5074629;28;20437;-63
2021/05/22 08:00:05;;;;;;;0.40;0.30;;;;;;;14.99;68.43;99866.38;5069762;28;20446;-63
2021/05/22 08:02:31;;;;;;;0.87;0.43;;;;;;;15.12;69.29;99874.13;5055134;28;20476;-63
2021/05/22 08:04:57;;;;;;;4.10;0.40;;;;;;;15.13;67.80;99880.38;5058634;28;20507;-64
2021/05/22 08:07:23;;;;;;;0.53;0.47;;;;;;;14.99;67.52;99886.25;5074330;28;20470;-65
2021/05/22 08:09:49;;;;;;;0.83;0.83;;;;;;;14.88;68.94;99877.00;5071808;28;20443;-65
2021/05/22 08:12:15;;;;;;;0.40;0.30;;;;;;;14.91;69.67;99872.78;5054997;28;20449;-64
2021/05/22 08:14:41;;;;;;;0.70;0.40;;;;;;;14.97;69.39;99871.41;5055804;28;20477;-64
2021/05/22 08:17:08;;;;;;;0.50;0.50;;;;;;;14.98;67.29;99862.84;5070411;28;20438;-65
2021/05/22 08:19:34;;;;;;;0.50;0.40;;;;;;;15.05;67.25;99868.50;5073471;28;20952;-64
2021/05/22 08:22:00;;;;;;;1.60;0.77;;;;;;;15.14;67.97;99863.69;5059273;28;20438;-64
2021/05/22 08:24:26;;;;;;;2.03;0.70;;;;;;;15.16;68.55;99862.53;5063059;28;20462;-64
2021/05/22 08:26:52;;;;;;;0.60;0.40;;;;;;;15.32;68.00;99860.63;5054937;28;20447;-64
2021/05/22 08:29:18;;;;;;;0.83;0.50;;;;;;;15.37;64.21;99857.66;5053129;28;20446;-64
2021/05/22 08:31:44;;;;;;;0.70;0.67;;;;;;;15.30;64.97;99847.31;5054479;28;20500;-64
2021/05/22 08:34:10;;;;;;;1.50;1.17;;;;;;;15.36;66.05;99840.47;5063467;28;20460;-64
2021/05/22 08:36:36;;;;;;;2.20;0.40;;;;;;;15.42;63.40;99849.19;5074753;28;20455;-65
2021/05/22 08:39:03;;;;;;;0.50;0.40;;;;;;;15.53;61.72;99849.44;5062569;28;20455;-64
2021/05/22 08:41:30;;;;;;;0.87;0.43;;;;;;;15.55;60.80;99856.16;5064594;28;20533;-66
2021/05/22 08:43:56;;;;;;;0.50;0.40;;;;;;;15.61;61.87;99853.94;5057081;28;20492;-67
2021/05/22 08:46:24;;;;;;;3.17;0.50;;;;;;;15.69;62.72;99853.00;5053231;28;21187;-65
2021/05/22 08:48:50;;;;;;;0.50;0.40;;;;;;;15.82;63.79;99846.31;5054765;28;20565;-67
2021/05/22 08:51:20;;;;;;;2.40;0.40;;;;;;;16.02;61.79;99852.59;5052976;28;20438;-66
2021/05/22 08:53:46;;;;;;;1.80;0.40;;;;;;;16.19;60.72;99850.63;5058789;28;20434;-66
2021/05/22 08:56:12;;;;;;;0.40;0.30;;;;;;;16.34;59.82;99834.19;5074171;28;20461;-65
2021/05/22 08:58:38;;;;;;;0.47;0.30;;;;;;;16.61;59.24;99853.50;5066120;28;20446;-66
2021/05/22 09:01:05;;;;;;;0.60;0.40;;;;;;;16.78;60.47;99850.38;5054280;28;20438;-67
2021/05/22 09:03:31;;;;;;;0.40;0.30;;;;;;;16.83;60.57;99847.34;5055076;28;20469;-66
2021/05/22 09:05:58;;;;;;;13.53;1.00;;;;;;;16.87;58.83;99861.88;5053691;28;20458;-66
2021/05/22 09:08:25;;;;;;;1.57;0.73;;;;;;;16.68;58.44;99850.88;5056717;28;20481;-66
2021/05/22 09:10:53;;;;;;;1.47;0.40;;;;;;;16.56;55.76;99848.31;5073933;28;20551;-67
2021/05/22 09:13:25;;;;;;;2.00;0.67;;;;;;;16.68;57.69;99844.63;5070129;28;20449;-66
2021/05/22 09:15:56;;;;;;;1.17;0.40;;;;;;;16.82;56.65;99853.97;5053960;28;20458;-66
2021/05/22 09:18:24;;;;;;;0.60;0.40;;;;;;;16.96;56.48;99850.72;5059513;28;20928;-67
2021/05/22 09:20:51;;;;;;;0.50;0.40;;;;;;;17.00;54.40;99845.28;5073653;28;20446;-67
2021/05/22 09:23:19;;;;;;;0.80;0.50;;;;;;;16.97;54.60;99843.28;5063869;28;20846;-66
2021/05/22 09:25:48;;;;;;;0.50;0.40;;;;;;;17.10;55.03;99841.97;5053671;28;20462;-66
2021/05/22 09:28:16;;;;;;;21.27;0.87;;;;;;;17.01;54.42;99855.09;5054499;28;20485;-67
2021/05/22 09:30:46;;;;;;;0.63;0.40;;;;;;;16.83;53.66;99860.22;5053522;28;20446;-66
2021/05/22 09:33:14;;;;;;;0.60;0.40;;;;;;;16.59;52.88;99851.09;5061566;28;20452;-67
2021/05/22 09:35:40;;;;;;;1.07;0.67;;;;;;;16.44;52.63;99843.78;5071987;28;20462;-67
2021/05/22 09:38:06;;;;;;;0.50;0.47;;;;;;;16.35;52.50;99852.19;5061237;28;20446;-67
2021/05/22 09:40:34;;;;;;;3.80;0.47;;;;;;;16.29;53.24;99856.34;5064158;28;20456;-67
2021/05/22 09:43:05;;;;;;;0.40;0.30;;;;;;;16.23;54.64;99849.56;5073171;28;20445;-66
2021/05/22 09:45:33;;;;;;;3.03;0.77;;;;;;;16.07;54.82;99846.88;5061387;28;20470;-65
2021/05/22 09:48:09;;;;;;;0.47;0.33;;;;;;;16.00;54.69;99838.50;5053447;28;20996;-67
2021/05/22 09:50:37;;;;;;;1.43;0.50;;;;;;;16.14;55.56;99836.09;5073413;28;20475;-66
2021/05/22 09:53:20;;;;;;;0.60;0.40;;;;;;;16.44;54.27;99840.25;5059943;28;20796;-66
2021/05/22 09:56:06;;;;;;;0.73;0.50;;;;;;;16.59;54.52;99829.22;5058260;28;20518;-66
2021/05/22 09:58:34;;;;;;;2.97;0.40;;;;;;;16.80;53.12;99841.78;5059769;28;20481;-66
2021/05/22 10:01:00;;;;;;;1.83;0.60;;;;;;;17.05;50.37;99839.53;5069300;28;20437;-66
2021/05/22 10:03:26;;;;;;;1.00;0.63;;;;;;;17.16;50.21;99854.19;5072739;28;20466;-66
2021/05/22 10:05:52;;;;;;;1.83;0.50;;;;;;;17.19;50.71;99861.69;5072824;28;20854;-65
2021/05/22 10:08:19;;;;;;;0.90;0.43;;;;;;;17.10;50.64;99878.34;5072650;28;20524;-66
2021/05/22 10:10:53;;;;;;;0.90;0.60;;;;;;;16.59;60.09;99900.31;5072938;28;20445;-66
2021/05/22 10:13:21;;;;;;;0.93;0.50;;;;;;;15.55;69.38;99904.50;5072993;28;20446;-66
2021/05/22 10:15:50;;;;;;;0.50;0.40;;;;;;;14.47;73.94;99922.50;5071517;28;20461;-68
2021/05/22 10:18:18;;;;;;;0.40;0.30;;;;;;;13.73;81.53;99915.50;5072670;28;20452;-65
2021/05/22 10:20:45;;;;;;;0.50;0.30;;;;;;;13.18;80.95;99895.72;5072706;28;20443;-65
2021/05/22 10:23:14;;;;;;;0.43;0.30;;;;;;;12.71;83.35;99881.63;5072202;28;20536;-66
2021/05/22 10:25:41;;;;;;;0.50;0.30;;;;;;;12.43;87.48;99873.97;5072479;28;20465;-65
2021/05/22 10:28:11;;;;;;;0.50;0.33;;;;;;;12.25;89.58;99867.06;5072612;28;20488;-65
2021/05/22 10:30:40;;;;;;;0.60;0.43;;;;;;;12.22;91.14;99860.41;5072848;28;20445;-65
2021/05/22 10:33:10;;;;;;;0.70;0.40;;;;;;;12.37;92.04;99864.44;5072176;28;20449;-66
2021/05/22 10:35:41;;;;;;;1.20;0.50;;;;;;;12.49;93.04;99869.16;5072723;28;20463;-65
2021/05/22 10:38:08;;;;;;;0.70;0.53;;;;;;;12.69;93.39;99865.63;5072738;28;20878;-64
2021/05/22 10:40:50;;;;;;;1.73;0.53;;;;;;;12.87;93.43;99861.63;5072807;28;20449;-65
2021/05/22 10:43:39;;;;;;;0.47;0.43;;;;;;;13.15;92.74;99861.06;5071901;28;21395;-65
2021/05/22 10:46:08;;;;;;;0.50;0.37;;;;;;;13.48;92.48;99863.75;5095790;22;20485;-81
2021/05/22 10:48:57;;;;;;;1.00;0.70;;;;;;;13.78;88.15;99860.84;5073536;28;20545;-82
2021/05/22 10:51:34;;;;;;;1.57;1.07;;;;;;;14.00;84.71;99851.41;5075503;28;20551;-83
2021/05/22 10:54:06;;;;;;;0.60;0.40;;;;;;;14.32;79.62;99855.88;5075336;28;20424;-83
2021/05/22 10:56:33;;;;;;;0.50;0.40;;;;;;;14.66;79.93;99851.06;5077291;28;20453;-83
2021/05/22 10:59:18;;;;;;;2.93;0.70;;;;;;;15.09;76.30;99853.00;5079996;28;20448;-78
2021/05/22 11:01:47;;;;;;;1.07;0.53;;;;;;;15.46;76.01;99852.81;5079735;28;20473;-82
2021/05/22 11:04:33;;;;;;;0.80;0.40;;;;;;;15.58;75.70;99860.09;5078715;28;20855;-80
2021/05/22 11:07:00;;;;;;;0.50;0.30;;;;;;;15.51;73.09;99889.97;5057620;28;20552;-83
2021/05/22 11:09:43;;;;;;;1.63;0.50;;;;;;;15.10;69.92;99898.25;5056772;28;20450;-80
2021/05/22 11:12:49;;;;;;;0.50;0.40;;;;;;;14.73;69.12;99900.31;5056772;28;20454;-79
2021/05/22 11:15:39;;;;;;;0.40;0.30;;;;;;;14.28;69.59;99906.75;5041502;28;20957;-80
2021/05/22 11:18:06;;;;;;;0.60;0.47;;;;;;;14.08;73.21;99891.34;5068976;28;20441;-80
2021/05/22 11:20:34;;;;;;;0.60;0.37;;;;;;;13.74;78.08;99890.66;5076744;28;20805;-79
2021/05/22 11:23:01;;;;;;;0.60;0.40;;;;;;;13.29;82.36;99882.53;5075477;28;20465;-80
2021/05/22 11:25:44;;;;;;;0.40;0.30;;;;;;;13.09;85.69;99873.25;5076238;28;20806;-80
2021/05/22 11:28:17;;;;;;;3.70;0.63;;;;;;;13.10;85.64;99866.69;5076151;28;20975;-79
2021/05/22 11:30:44;;;;;;;4.30;1.00;;;;;;;13.32;85.79;99868.25;5075759;28;20457;-80
2021/05/22 11:33:26;;;;;;;0.70;0.50;;;;;;;13.96;86.43;99864.91;5076425;28;20499;-80
2021/05/22 11:35:56;;;;;;;0.80;0.47;;;;;;;15.48;85.42;99871.56;5076798;28;20452;-80
2021/05/22 11:38:32;;;;;;;0.50;0.40;;;;;;;16.58;76.68;99859.69;5076508;28;20536;-81